Aeroporto :
LOGIN :

Iscrizione | Disclaimer

   EN    FR    IT 

 










Sommario :    VFR   VFR Marginale   IFR   IFR Intensivo   IFR Molto Intensivo
Visibilità : 
Base nubi : 
>= 8 km
>= 3000ft
5 / 8 km
1000 / 3000 ft
1500m / 5 km
500 / 1000 ft
800 / 1500m
200 / 500 ft
< 800m
< 200 ft
Simboli :   Temporali  Nebbia  Neve Forte  Precipitazioni Forti  Vento > 20 kt
SIGMETs :   Varie  Temporali  Ghiacco  Turbolenza  Onda orograficha  Ceneri Vulcaniche






- Altitudine del aeroporto : -11 ft
- Codice IATA : AMS


EHAM - Amsterdam Schiphol

ULTIMO METAR :
  • 231355Z 17003KT 130V200 9999 FEW010 BKN029 08/06 Q1035 NOSIG

METARs OBSOLETI :
  • 231325Z 16003KT 9999 FEW010 BKN029 08/06 Q1035 NOSIG
  • 231255Z 15003KT 9999 FEW010 BKN027 07/06 Q1035 NOSIG
  • 231225Z 16004KT 9999 FEW010 BKN027 07/06 Q1035 NOSIG
  • 231155Z 16004KT 9999 FEW009 BKN027 07/06 Q1035 NOSIG
  • 231125Z 16004KT 9999 FEW008 BKN029 07/06 Q1036 NOSIG

TAF TAF EHAM
Valido dal 23 a 12 ore il 24 a 18 ore UTC


231118Z 2312/2418 15005KT 9999 BKN030
BECMG 2321/2324 6000
BECMG 2400/2403 3000 BR NSC
BECMG 2403/2406 1400 BCFG
PROB40 2404/2409 0500 FG VV001
BECMG 2409/2411 3000 BR BKN005
BECMG 2411/2414 8000 NSW SCT010
BECMG 2416/2418 6000



MetMap, La meteo Aeronautica in un colpo d'occhio ! - Copyright ORBIFLY Dicembre 2007 - Disclaimer

ORBIFLY MET'MAP TEAM :

Programmazione e sviluppo : Alexandra Zaïnal
Concezione : Baudouin d'Aumeries
Aiuto per la programmazione : Marc-Olivier Méhu
Supporto tecnico e logistico : Manuel Goepfert
Aiuto per la traduzione : Arnaldo La Scala

Contatto : metmap@orbifly.com




FONTI E CREDITI :

   NOAA